createdAt,value
2022-12-27T00:02:21.938Z,12.70
2022-12-27T00:04:50.151Z,8.07
2022-12-27T00:09:45.051Z,12.90
2022-12-27T00:12:12.548Z,11.73
2022-12-27T00:14:40.167Z,14.40
2022-12-27T00:17:07.602Z,7.22
2022-12-27T00:19:35.006Z,11.65
2022-12-27T00:22:02.396Z,8.40
2022-12-27T00:24:30.057Z,15.45
2022-12-27T00:26:57.423Z,10.13
2022-12-27T00:29:25.067Z,12.23
2022-12-27T00:31:52.607Z,8.63
2022-12-27T00:34:20.092Z,11.02
2022-12-27T00:36:47.497Z,11.82
2022-12-27T00:39:14.914Z,12.43
2022-12-27T00:41:42.362Z,10.77
2022-12-27T00:44:09.871Z,12.35
2022-12-27T00:46:37.302Z,10.02
2022-12-27T00:49:05.100Z,15.50
2022-12-27T00:51:33.353Z,17.48
2022-12-27T00:54:00.829Z,15.90
2022-12-27T00:56:30.601Z,13.05
2022-12-27T00:59:01.585Z,13.00
2022-12-27T01:01:34.086Z,11.55
2022-12-27T01:04:02.358Z,11.90
2022-12-27T01:06:32.204Z,13.35
2022-12-27T01:09:01.231Z,12.32
2022-12-27T01:11:29.636Z,11.10
2022-12-27T01:14:02.416Z,15.45
2022-12-27T01:16:31.247Z,13.80
2022-12-27T01:18:59.756Z,11.18
2022-12-27T01:21:30.569Z,14.57
2022-12-27T01:23:58.557Z,9.95
2022-12-27T01:26:26.402Z,11.82
2022-12-27T01:28:54.632Z,12.95
2022-12-27T01:31:25.426Z,13.45
2022-12-27T01:33:57.502Z,12.18
2022-12-27T01:36:25.907Z,12.20
2022-12-27T01:38:53.855Z,9.52
2022-12-27T01:42:01.343Z,14.70
2022-12-27T01:44:44.002Z,17.88
2022-12-27T01:47:48.933Z,15.15
2022-12-27T01:50:25.203Z,11.73
2022-12-27T01:53:11.464Z,13.27
2022-12-27T01:55:52.984Z,11.27
2022-12-27T01:58:23.754Z,6.80
2022-12-27T02:00:51.894Z,21.63
2022-12-27T02:03:25.449Z,10.55
2022-12-27T02:05:53.433Z,13.82
2022-12-27T02:08:41.280Z,11.32
2022-12-27T02:16:19.980Z,14.88
2022-12-27T02:18:47.739Z,8.30
2022-12-27T02:21:21.157Z,6.90
2022-12-27T02:24:04.676Z,13.48
2022-12-27T02:26:59.353Z,11.43
2022-12-27T02:29:47.757Z,19.55
2022-12-27T02:32:38.047Z,17.00
2022-12-27T02:35:26.963Z,12.30
2022-12-27T02:38:08.782Z,15.85
2022-12-27T02:40:59.317Z,18.50
2022-12-27T02:43:46.701Z,14.95
2022-12-27T02:46:49.054Z,10.10
2022-12-27T02:49:50.375Z,11.80
2022-12-27T02:52:43.488Z,17.33
2022-12-27T02:55:32.661Z,14.35
2022-12-27T02:58:08.975Z,9.38
2022-12-27T03:01:18.043Z,9.40
2022-12-27T03:04:02.435Z,11.60
2022-12-27T03:06:52.973Z,18.42
2022-12-27T03:09:54.420Z,15.18
2022-12-27T03:12:45.487Z,12.50
2022-12-27T03:15:56.047Z,13.95
2022-12-27T03:18:35.633Z,10.52
2022-12-27T03:21:23.208Z,14.93
2022-12-27T03:24:14.206Z,15.98
2022-12-27T03:26:46.912Z,13.43
2022-12-27T03:29:36.215Z,13.88
2022-12-27T03:32:27.045Z,15.30
2022-12-27T03:35:15.362Z,11.95
2022-12-27T03:38:04.034Z,10.20
2022-12-27T03:41:15.708Z,9.50
2022-12-27T03:43:45.090Z,13.65
2022-12-27T03:46:34.424Z,11.93
2022-12-27T03:49:20.134Z,6.88
2022-12-27T03:52:16.382Z,10.52
2022-12-27T03:54:46.826Z,10.57
2022-12-27T03:57:17.826Z,15.85
2022-12-27T03:59:45.573Z,16.75
2022-12-27T04:02:13.435Z,13.50
2022-12-27T04:04:41.177Z,16.67
2022-12-27T04:07:08.826Z,18.15
2022-12-27T04:09:54.626Z,10.82
2022-12-27T04:12:40.885Z,13.43
2022-12-27T04:15:27.397Z,10.35
2022-12-27T04:18:13.450Z,13.57
2022-12-27T04:21:00.331Z,15.73
2022-12-27T04:23:46.244Z,13.60
2022-12-27T04:26:32.092Z,15.73
2022-12-27T04:29:17.985Z,9.10
2022-12-27T04:32:03.924Z,11.90
2022-12-27T04:34:46.384Z,11.98
2022-12-27T04:37:19.525Z,18.38
2022-12-27T04:40:08.966Z,6.72
2022-12-27T04:42:54.978Z,16.55
2022-12-27T04:45:41.545Z,12.90
2022-12-27T04:48:33.586Z,13.13
2022-12-27T04:51:19.775Z,10.27
2022-12-27T04:54:05.678Z,12.80
2022-12-27T04:56:33.235Z,17.45
2022-12-27T04:59:19.133Z,10.18
2022-12-27T05:02:05.229Z,12.57
2022-12-27T05:04:35.287Z,10.05
2022-12-27T05:07:24.185Z,8.15
2022-12-27T05:10:10.578Z,11.27
2022-12-27T05:12:56.451Z,13.18
2022-12-27T05:15:23.946Z,12.40
2022-12-27T05:17:51.387Z,10.35
2022-12-27T05:20:18.891Z,13.68
2022-12-27T05:23:04.915Z,14.32
2022-12-27T05:25:35.076Z,10.77
2022-12-27T05:28:06.936Z,9.52
2022-12-27T05:30:39.529Z,9.48
2022-12-27T05:33:07.609Z,11.18
2022-12-27T05:35:35.856Z,14.82
2022-12-27T05:38:04.126Z,20.50
2022-12-27T05:40:31.638Z,8.73
2022-12-27T05:43:03.089Z,11.82
2022-12-27T05:45:30.610Z,10.88
2022-12-27T05:47:59.482Z,14.73
2022-12-27T05:50:26.920Z,10.60
2022-12-27T05:53:08.005Z,13.15
2022-12-27T05:55:35.493Z,9.27
2022-12-27T05:58:03.252Z,14.75
2022-12-27T06:00:30.857Z,16.75
2022-12-27T06:05:26.246Z,12.93
2022-12-27T06:07:53.685Z,12.68
2022-12-27T06:10:21.109Z,17.33
2022-12-27T06:12:48.552Z,17.02
2022-12-27T06:15:16.304Z,15.60
2022-12-27T06:17:43.943Z,15.52
2022-12-27T06:20:11.422Z,15.52
2022-12-27T06:22:38.903Z,8.18
2022-12-27T06:25:10.802Z,14.40
2022-12-27T06:27:41.786Z,12.82
2022-12-27T06:30:12.252Z,11.88
2022-12-27T06:32:39.826Z,14.13
2022-12-27T06:35:08.166Z,10.15
2022-12-27T06:37:35.631Z,12.13
2022-12-27T06:40:03.316Z,19.20
2022-12-27T06:42:31.128Z,13.75
2022-12-27T06:44:58.633Z,15.77
2022-12-27T06:47:26.108Z,13.35
2022-12-27T06:49:53.594Z,14.05
2022-12-27T06:52:23.091Z,14.45
2022-12-27T06:54:50.525Z,16.88
2022-12-27T06:57:17.934Z,14.52
2022-12-27T06:59:49.475Z,13.60
2022-12-27T07:02:21.419Z,13.32
2022-12-27T07:04:48.987Z,21.25
2022-12-27T07:07:16.419Z,15.88
2022-12-27T07:09:43.809Z,16.92
2022-12-27T07:12:11.389Z,12.93
2022-12-27T07:14:38.971Z,16.77
2022-12-27T07:17:06.452Z,14.32
2022-12-27T07:19:33.887Z,15.25
2022-12-27T07:22:01.343Z,13.45
2022-12-27T07:24:30.879Z,10.80
2022-12-27T07:26:58.268Z,11.73
2022-12-27T07:29:26.305Z,12.18
2022-12-27T07:31:54.345Z,14.02
2022-12-27T07:34:22.106Z,13.80
2022-12-27T07:36:49.531Z,19.77
2022-12-27T07:39:17.512Z,14.80
2022-12-27T07:41:44.932Z,16.35
2022-12-27T07:44:14.832Z,17.02
2022-12-27T07:46:42.321Z,14.25
2022-12-27T07:49:17.168Z,12.43
2022-12-27T07:51:45.224Z,10.30
2022-12-27T07:54:12.756Z,14.70
2022-12-27T07:56:40.213Z,13.00
2022-12-27T07:59:13.032Z,17.40
2022-12-27T08:01:59.316Z,18.45
2022-12-27T08:04:26.931Z,11.82
2022-12-27T08:07:02.032Z,21.52
2022-12-27T08:09:31.985Z,15.18
2022-12-27T08:11:59.412Z,19.63
2022-12-27T08:14:26.861Z,17.58
2022-12-27T08:16:59.284Z,15.50
2022-12-27T08:19:26.701Z,13.95
2022-12-27T08:21:54.166Z,15.57
2022-12-27T08:24:21.729Z,15.35
2022-12-27T08:26:49.125Z,20.17
2022-12-27T08:29:16.709Z,15.32
2022-12-27T08:31:44.111Z,14.70
2022-12-27T08:34:11.511Z,22.70
2022-12-27T08:36:55.315Z,11.85
2022-12-27T08:39:24.262Z,15.25
2022-12-27T08:41:54.176Z,11.60
2022-12-27T08:44:22.458Z,10.98
2022-12-27T08:49:17.177Z,23.15
2022-12-27T08:51:44.668Z,10.75
2022-12-27T08:54:12.136Z,12.43
2022-12-27T08:56:39.561Z,13.10
2022-12-27T08:59:07.167Z,16.00
2022-12-27T09:01:34.721Z,10.40
2022-12-27T09:04:02.308Z,13.00
2022-12-27T09:06:29.765Z,13.32
2022-12-27T09:08:57.360Z,15.15
2022-12-27T09:11:27.216Z,13.27
2022-12-27T09:13:54.843Z,13.05
2022-12-27T09:16:24.829Z,8.55
2022-12-27T09:18:54.600Z,13.82
2022-12-27T09:21:23.993Z,14.00
2022-12-27T09:23:51.801Z,11.23
2022-12-27T09:26:24.970Z,10.52
2022-12-27T09:28:53.039Z,14.82
2022-12-27T09:31:22.069Z,15.27
2022-12-27T09:33:49.524Z,16.33
2022-12-27T09:36:20.263Z,13.55
2022-12-27T09:38:48.357Z,15.20
2022-12-27T09:47:34.083Z,14.30
2022-12-27T09:50:11.743Z,15.88
2022-12-27T09:53:02.393Z,14.30
2022-12-27T09:55:41.642Z,17.92
2022-12-27T09:58:21.125Z,12.15
2022-12-27T10:00:51.751Z,14.07
2022-12-27T10:03:24.413Z,12.40
2022-12-27T10:06:13.802Z,14.68
2022-12-27T10:08:52.986Z,14.38
2022-12-27T10:11:36.155Z,12.38
2022-12-27T10:14:28.486Z,15.65
2022-12-27T10:17:07.495Z,18.00
2022-12-27T10:19:44.781Z,15.93
2022-12-27T10:22:35.194Z,13.73
2022-12-27T10:25:12.077Z,15.45
2022-12-27T10:27:40.940Z,19.73
2022-12-27T10:30:21.339Z,16.70
2022-12-27T10:32:49.695Z,24.95
2022-12-27T10:35:20.295Z,14.30
2022-12-27T10:37:49.166Z,17.10
2022-12-27T10:40:26.121Z,18.17
2022-12-27T10:43:05.607Z,15.40
2022-12-27T10:45:42.613Z,13.35
2022-12-27T10:48:12.984Z,21.38
2022-12-27T10:50:49.236Z,17.80
2022-12-27T10:53:34.114Z,20.15
2022-12-27T10:56:12.570Z,19.92
2022-12-27T10:58:54.628Z,13.80
2022-12-27T11:01:30.106Z,15.05
2022-12-27T11:04:19.316Z,16.92
2022-12-27T11:07:13.233Z,17.02
2022-12-27T11:09:50.170Z,11.73
2022-12-27T11:12:18.435Z,16.55
2022-12-27T11:15:05.340Z,22.20
2022-12-27T11:17:37.575Z,17.30
2022-12-27T11:20:37.487Z,22.00
2022-12-27T11:23:10.410Z,19.50
2022-12-27T11:26:02.721Z,22.42
2022-12-27T11:28:45.961Z,22.10
2022-12-27T11:31:16.789Z,17.08
2022-12-27T11:34:02.551Z,19.15
2022-12-27T11:36:34.594Z,16.33
2022-12-27T11:39:02.700Z,21.60
2022-12-27T11:41:47.317Z,13.32
2022-12-27T11:44:31.713Z,17.95
2022-12-27T11:47:08.782Z,16.42
2022-12-27T11:49:40.249Z,21.60
2022-12-27T11:52:16.453Z,22.98
2022-12-27T11:54:49.748Z,16.27
2022-12-27T11:57:50.875Z,17.63
2022-12-27T12:00:23.757Z,17.15
2022-12-27T12:03:02.027Z,19.50
2022-12-27T12:05:47.347Z,19.77
2022-12-27T12:08:36.761Z,19.42
2022-12-27T12:11:25.899Z,17.45
2022-12-27T12:14:30.480Z,15.88
2022-12-27T12:17:19.469Z,16.35
2022-12-27T12:19:59.098Z,17.13
2022-12-27T12:22:54.933Z,14.00
2022-12-27T12:25:43.484Z,18.13
2022-12-27T12:28:56.855Z,20.10
2022-12-27T12:31:22.228Z,18.45
2022-12-27T12:34:08.856Z,17.80
2022-12-27T12:36:45.524Z,19.15
2022-12-27T12:39:42.544Z,17.05
2022-12-27T12:42:34.480Z,12.88
2022-12-27T12:45:39.793Z,19.50
2022-12-27T12:48:28.304Z,11.15
2022-12-27T12:51:04.797Z,16.98
2022-12-27T12:53:44.644Z,9.32
2022-12-27T12:56:49.150Z,13.38
2022-12-27T12:59:41.333Z,12.98
2022-12-27T13:02:40.524Z,10.60
2022-12-27T13:05:20.051Z,12.82
2022-12-27T13:08:04.628Z,15.90
2022-12-27T13:10:35.597Z,15.93
2022-12-27T13:13:44.284Z,13.10
2022-12-27T13:16:40.752Z,16.55
2022-12-27T13:19:20.075Z,13.93
2022-12-27T13:21:59.445Z,14.25
2022-12-27T13:24:45.543Z,14.18
2022-12-27T13:27:29.154Z,16.83
2022-12-27T13:30:16.400Z,11.25
2022-12-27T13:32:59.085Z,20.30
2022-12-27T13:35:44.453Z,15.45
2022-12-27T13:38:14.723Z,18.00
2022-12-27T13:41:08.198Z,17.35
2022-12-27T13:44:13.400Z,13.25
2022-12-27T13:47:07.477Z,16.45
2022-12-27T13:49:49.412Z,20.88
2022-12-27T13:52:25.539Z,19.25
2022-12-27T13:55:11.438Z,27.55
2022-12-27T13:58:09.831Z,20.88
2022-12-27T14:00:53.643Z,16.05
2022-12-27T14:03:26.945Z,16.13
2022-12-27T14:06:06.748Z,19.48
2022-12-27T14:09:12.062Z,16.10
2022-12-27T14:11:50.423Z,19.08
2022-12-27T14:14:19.663Z,18.15
2022-12-27T14:17:24.108Z,19.20
2022-12-27T14:20:19.781Z,17.92
2022-12-27T14:23:00.500Z,17.77
2022-12-27T14:25:57.922Z,18.10
2022-12-27T14:28:34.075Z,23.55
2022-12-27T14:31:38.028Z,21.48
2022-12-27T14:34:27.544Z,15.82
2022-12-27T14:37:34.945Z,18.50
2022-12-27T14:40:39.341Z,19.17
2022-12-27T14:43:48.042Z,20.65
2022-12-27T14:46:53.185Z,18.77
2022-12-27T14:49:32.513Z,13.93
2022-12-27T14:52:36.306Z,20.00
2022-12-27T14:55:31.627Z,21.25
2022-12-27T14:58:16.193Z,17.60
2022-12-27T15:00:59.449Z,13.02
2022-12-27T15:03:54.341Z,18.73
2022-12-27T15:06:53.001Z,16.25
2022-12-27T15:09:49.523Z,27.88
2022-12-27T15:12:22.788Z,22.25
2022-12-27T15:15:17.437Z,16.80
2022-12-27T15:18:12.067Z,28.20
2022-12-27T15:21:24.149Z,19.95
2022-12-27T15:24:05.027Z,22.83
2022-12-27T15:27:19.327Z,26.35
2022-12-27T15:30:04.039Z,23.80
2022-12-27T15:32:53.388Z,18.48
2022-12-27T15:35:47.369Z,24.80
2022-12-27T15:38:18.390Z,19.60
2022-12-27T15:40:54.421Z,22.80
2022-12-27T15:43:59.240Z,20.67
2022-12-27T15:46:54.556Z,20.33
2022-12-27T15:49:59.538Z,13.20
2022-12-27T15:52:46.269Z,20.38
2022-12-27T15:55:23.633Z,16.42
2022-12-27T15:58:09.575Z,22.17
2022-12-27T16:00:37.453Z,19.70
2022-12-27T16:03:33.849Z,20.92
2022-12-27T16:06:03.016Z,22.02
2022-12-27T16:08:36.429Z,21.35
2022-12-27T16:11:07.483Z,25.02
2022-12-27T16:14:02.273Z,28.23
2022-12-27T16:16:29.882Z,21.60
2022-12-27T16:19:09.492Z,20.95
2022-12-27T16:21:42.265Z,20.83
2022-12-27T16:24:24.073Z,27.35
2022-12-27T16:27:02.390Z,27.08
2022-12-27T16:29:43.479Z,37.13
2022-12-27T16:32:24.126Z,28.08
2022-12-27T16:34:55.274Z,23.60
2022-12-27T16:37:33.628Z,22.77
2022-12-27T16:40:23.653Z,20.70
2022-12-27T16:42:54.133Z,24.17
2022-12-27T16:45:31.308Z,30.52
2022-12-27T16:48:28.436Z,26.40
2022-12-27T16:51:23.143Z,22.60
2022-12-27T16:56:48.030Z,21.35
2022-12-27T16:59:53.423Z,32.58
2022-12-27T17:02:32.950Z,28.58
2022-12-27T17:05:01.185Z,29.27
2022-12-27T17:07:43.972Z,32.63
2022-12-27T17:10:34.897Z,36.38
2022-12-27T17:13:14.217Z,28.92
2022-12-27T17:15:54.123Z,39.10
2022-12-27T17:18:30.222Z,28.50
2022-12-27T17:21:08.547Z,27.85
2022-12-27T17:23:41.511Z,30.33
2022-12-27T17:26:38.603Z,33.58
2022-12-27T17:29:29.796Z,30.08
2022-12-27T17:32:29.333Z,30.90
2022-12-27T17:35:03.746Z,37.17
2022-12-27T17:37:46.899Z,23.92
2022-12-27T17:40:31.519Z,26.58
2022-12-27T17:43:56.228Z,18.23
2022-12-27T17:46:32.724Z,18.33
2022-12-27T17:49:00.193Z,22.40
2022-12-27T17:51:30.366Z,18.17
2022-12-27T17:54:16.585Z,31.25
2022-12-27T17:57:18.410Z,21.13
2022-12-27T17:59:50.008Z,24.63
2022-12-27T18:02:26.172Z,24.52
2022-12-27T18:04:56.782Z,23.67
2022-12-27T18:07:30.010Z,20.42
2022-12-27T18:10:02.584Z,18.98
2022-12-27T18:12:38.747Z,22.52
2022-12-27T18:15:21.836Z,27.30
2022-12-27T18:17:55.463Z,26.10
2022-12-27T18:20:34.644Z,20.27
2022-12-27T18:23:02.157Z,22.92
2022-12-27T18:25:37.893Z,24.52
2022-12-27T18:28:18.248Z,20.75
2022-12-27T18:30:54.931Z,17.60
2022-12-27T18:33:33.045Z,19.20
2022-12-27T18:38:34.399Z,18.67
2022-12-27T18:41:08.545Z,25.77
2022-12-27T18:43:40.599Z,21.17
2022-12-27T18:46:13.729Z,15.43
2022-12-27T18:48:41.982Z,20.52
2022-12-27T18:51:10.238Z,15.90
2022-12-27T18:53:39.430Z,14.15
2022-12-27T18:56:16.261Z,15.60
2022-12-27T18:59:04.320Z,20.75
2022-12-27T19:04:15.119Z,18.92
2022-12-27T19:06:52.940Z,14.52
2022-12-27T19:09:22.761Z,15.80
2022-12-27T19:11:59.100Z,19.65
2022-12-27T19:14:40.732Z,18.35
2022-12-27T19:17:18.249Z,23.17
2022-12-27T19:19:51.410Z,20.67
2022-12-27T19:22:27.983Z,24.98
2022-12-27T19:25:05.414Z,19.20
2022-12-27T19:27:33.135Z,21.98
2022-12-27T19:30:00.563Z,17.73
2022-12-27T19:32:32.489Z,24.13
2022-12-27T19:35:03.371Z,19.10
2022-12-27T19:37:32.493Z,26.38
2022-12-27T19:40:00.175Z,25.63
2022-12-27T19:42:34.764Z,20.80
2022-12-27T19:45:02.493Z,17.42
2022-12-27T19:47:31.398Z,23.10
2022-12-27T19:49:58.839Z,26.50
2022-12-27T19:52:27.744Z,21.95
2022-12-27T19:55:06.132Z,22.25
2022-12-27T19:57:33.667Z,21.90
2022-12-27T20:00:05.446Z,17.30
2022-12-27T20:02:34.562Z,25.88
2022-12-27T20:05:02.082Z,25.48
2022-12-27T20:07:29.538Z,30.40
2022-12-27T20:09:57.006Z,26.25
2022-12-27T20:12:27.479Z,25.63
2022-12-27T20:14:55.052Z,23.15
2022-12-27T20:17:22.557Z,30.33
2022-12-27T20:19:51.626Z,18.02
2022-12-27T20:22:19.147Z,18.00
2022-12-27T20:24:47.179Z,27.00
2022-12-27T20:27:14.618Z,19.88
2022-12-27T20:29:44.952Z,27.60
2022-12-27T20:32:12.462Z,18.30
2022-12-27T20:34:39.903Z,23.58
2022-12-27T20:37:07.376Z,16.63
2022-12-27T20:39:34.936Z,28.05
2022-12-27T20:42:02.479Z,19.77
2022-12-27T20:44:29.978Z,19.42
2022-12-27T20:46:57.448Z,23.75
2022-12-27T20:49:24.916Z,25.55
2022-12-27T20:51:52.777Z,17.88
2022-12-27T20:54:20.248Z,22.90
2022-12-27T20:56:47.779Z,18.45
2022-12-27T20:59:15.285Z,17.02
2022-12-27T21:01:42.840Z,21.10
2022-12-27T21:04:10.937Z,14.77
2022-12-27T21:06:38.549Z,14.02
2022-12-27T21:09:08.310Z,14.43
2022-12-27T21:11:36.494Z,14.63
2022-12-27T21:14:05.303Z,18.88
2022-12-27T21:16:34.867Z,13.95
2022-12-27T21:19:04.763Z,22.65
2022-12-27T21:21:35.140Z,18.75
2022-12-27T21:24:03.109Z,17.75
2022-12-27T21:26:33.579Z,21.95
2022-12-27T21:29:02.953Z,16.30
2022-12-27T21:31:31.252Z,14.77
2022-12-27T21:33:59.535Z,15.75
2022-12-27T21:36:31.245Z,25.67
2022-12-27T21:38:59.023Z,16.02
2022-12-27T21:41:29.574Z,30.15
2022-12-27T21:43:57.436Z,19.80
2022-12-27T21:46:30.662Z,17.63
2022-12-27T21:49:01.018Z,19.60
2022-12-27T21:51:29.733Z,20.58
2022-12-27T21:53:57.630Z,24.40
2022-12-27T21:56:26.226Z,19.45
2022-12-27T21:58:57.148Z,19.27
2022-12-27T22:01:26.932Z,21.40
2022-12-27T22:03:56.454Z,17.98
2022-12-27T22:06:37.152Z,15.45
2022-12-27T22:09:09.624Z,19.85
2022-12-27T22:11:38.167Z,16.38
2022-12-27T22:14:06.260Z,18.88
2022-12-27T22:16:36.260Z,16.38
2022-12-27T22:19:12.044Z,18.30
2022-12-27T22:21:41.117Z,11.10
2022-12-27T22:24:12.786Z,17.30
2022-12-27T22:26:41.789Z,16.50
2022-12-27T22:29:09.234Z,13.82
2022-12-27T22:31:38.062Z,11.15
2022-12-27T22:34:06.438Z,13.40
2022-12-27T22:39:01.687Z,14.43
2022-12-27T22:41:31.806Z,12.63
2022-12-27T22:44:05.308Z,9.43
2022-12-27T22:46:58.572Z,13.05
2022-12-27T22:49:21.326Z,6.90
2022-12-27T22:51:48.776Z,6.30
2022-12-27T22:54:16.243Z,8.70
2022-12-27T22:56:43.948Z,8.65
2022-12-27T22:59:14.170Z,8.05
2022-12-27T23:01:43.870Z,9.25
2022-12-27T23:04:13.523Z,7.43
2022-12-27T23:06:41.794Z,6.65
2022-12-27T23:11:38.571Z,5.53
2022-12-27T23:14:12.212Z,8.73
2022-12-27T23:16:45.405Z,4.53
2022-12-27T23:19:14.838Z,9.40
2022-12-27T23:21:42.401Z,7.10
2022-12-27T23:24:10.806Z,6.72
2022-12-27T23:26:38.661Z,4.20
2022-12-27T23:29:07.003Z,5.20
2022-12-27T23:34:01.785Z,3.00
2022-12-27T23:36:31.691Z,6.97
2022-12-27T23:38:59.336Z,4.80
2022-12-27T23:41:26.877Z,5.82
2022-12-27T23:43:56.055Z,5.07
2022-12-27T23:46:28.031Z,4.03
2022-12-27T23:48:57.524Z,5.82
2022-12-27T23:51:25.735Z,5.47
2022-12-27T23:53:53.655Z,9.60
2022-12-27T23:56:24.358Z,5.97
2022-12-27T23:58:54.710Z,9.55
